Terminal Aerodrome Forecast
Issued by NWS Louisville, KY

Home | Current Version | Previous Version | Text Only | Print | Product List | Glossary On
Versions: 1 2 3 4 5 6 7 8 9 10 11 12 13 14 15 16 17 18 19 20
000
FTUS43 KLMK 290532
TAFLEX
TAF
KLEX 290532Z 2906/3006 20004KT P6SM SCT025 SCT250
     FM290800 20004KT 3SM BR BKN009
      TEMPO 2909/2913 2SM BR BKN006
     FM291400 25006KT P6SM BKN025
     FM291500 26006KT P6SM SCT025 BKN050=

USA.gov is the U.S. government's official web portal to all federal, state and local government web resources and services.